Time;durP1;ratioP1;P1;durP2;ratioP2;P2;SDS_P1;SDS_P2;PMS_P1;PMS_P2;Temp;Humidity;BMP_temperature;BMP_pressure;BME280_temperature;BME280_humidity;BME280_pressure;Samples;Min_cycle;Max_cycle;Signal;HPM_P1;HPM_P2
2022/03/26 00:00:48;;;;;;;4.65;2.60;;;;;;;2.48;92.08;98932.91;5092987;28;20499;-84
2022/03/26 00:03:14;;;;;;;5.70;3.08;;;;;;;2.46;91.71;98918.84;5095647;28;20126;-81
2022/03/26 00:05:41;;;;;;;4.53;2.72;;;;;;;2.40;91.29;98920.69;5072814;28;20033;-84
2022/03/26 00:08:07;;;;;;;6.50;2.75;;;;;;;2.34;91.16;98921.78;5089570;28;20062;-83
2022/03/26 00:10:33;;;;;;;4.75;2.80;;;;;;;2.30;91.62;98908.00;5087814;28;20063;-84
2022/03/26 00:12:59;;;;;;;5.70;2.75;;;;;;;2.27;91.78;98907.72;5107323;28;20040;-84
2022/03/26 00:15:25;;;;;;;4.18;2.72;;;;;;;2.27;91.60;98886.06;5083558;28;20037;-84
2022/03/26 00:17:51;;;;;;;4.85;2.80;;;;;;;2.25;91.16;98888.22;5056413;28;20043;-84
2022/03/26 00:20:16;;;;;;;3.90;2.70;;;;;;;2.22;91.03;98883.34;5084837;28;20035;-84
2022/03/26 00:22:42;;;;;;;8.50;2.63;;;;;;;2.20;90.90;98866.56;5109689;28;20049;-86
2022/03/26 00:25:10;;;;;;;6.20;3.17;;;;;;;2.16;91.21;98882.53;5104429;28;20048;-86
2022/03/26 00:27:36;;;;;;;3.42;2.55;;;;;;;2.16;90.49;98862.78;5108172;27;20589;-84
2022/03/26 00:30:03;;;;;;;5.05;3.10;;;;;;;2.16;90.25;98860.09;5101377;28;20118;-85
2022/03/26 00:32:30;;;;;;;5.05;2.83;;;;;;;2.15;90.70;98858.47;5094944;28;20063;-85
2022/03/26 00:34:57;;;;;;;3.92;2.25;;;;;;;2.17;89.67;98845.47;5102250;27;20039;-85
2022/03/26 00:37:23;;;;;;;4.40;2.72;;;;;;;2.18;89.64;98852.50;5108938;27;20035;-85
2022/03/26 00:39:49;;;;;;;3.65;2.40;;;;;;;2.15;89.53;98839.53;5112383;27;20050;-86
2022/03/26 00:42:15;;;;;;;3.63;2.58;;;;;;;2.11;89.18;98848.19;5086710;28;20044;-85
2022/03/26 00:44:41;;;;;;;4.40;2.38;;;;;;;2.06;89.26;98833.81;5088281;28;20043;-87
2022/03/26 00:47:06;;;;;;;8.90;3.00;;;;;;;2.01;89.30;98829.22;5106174;27;20394;-85
2022/03/26 00:49:32;;;;;;;6.32;3.35;;;;;;;1.96;89.43;98831.13;5126867;27;20036;-85
2022/03/26 00:51:58;;;;;;;5.35;3.10;;;;;;;1.91;89.58;98826.53;5108365;27;20111;-86
2022/03/26 00:54:24;;;;;;;5.30;2.30;;;;;;;1.85;89.60;98816.75;5073957;28;20126;-85
2022/03/26 00:56:50;;;;;;;5.88;2.65;;;;;;;1.81;89.10;98804.88;5126595;27;20031;-87
2022/03/26 00:59:15;;;;;;;4.75;2.63;;;;;;;1.76;89.03;98799.47;5111021;28;20065;-87
2022/03/26 01:01:41;;;;;;;5.53;2.80;;;;;;;1.72;89.13;98793.75;5110769;27;20035;-86
2022/03/26 01:04:07;;;;;;;4.78;2.63;;;;;;;1.70;89.81;98792.41;5118409;27;20049;-87
2022/03/26 01:06:34;;;;;;;3.97;1.90;;;;;;;1.71;89.55;98794.03;5109286;27;20143;-87
2022/03/26 01:08:59;;;;;;;6.05;2.35;;;;;;;1.67;89.23;98782.94;5079130;28;20043;-85
2022/03/26 01:11:25;;;;;;;3.00;2.13;;;;;;;1.64;89.55;98777.28;5089244;28;20410;-86
2022/03/26 01:13:53;;;;;;;3.40;2.25;;;;;;;1.58;88.88;98781.88;5098088;27;20036;-85
2022/03/26 01:16:19;;;;;;;4.53;2.55;;;;;;;1.54;89.04;98778.06;5106079;27;20042;-86
2022/03/26 01:18:45;;;;;;;4.93;2.38;;;;;;;1.50;89.22;98760.75;5110592;27;20035;-85
2022/03/26 01:21:10;;;;;;;4.10;2.42;;;;;;;1.43;89.60;98755.63;5080768;27;20035;-85
2022/03/26 01:23:36;;;;;;;3.33;1.88;;;;;;;1.38;89.63;98766.41;5125656;27;20088;-86
2022/03/26 01:26:03;;;;;;;2.25;2.05;;;;;;;1.35;89.34;98761.53;5121817;27;20039;-86
2022/03/26 01:28:30;;;;;;;3.25;2.28;;;;;;;1.31;89.25;98751.53;5095257;28;20063;-84
2022/03/26 01:30:57;;;;;;;4.60;2.65;;;;;;;1.24;89.60;98745.56;5100802;27;20077;-85
2022/03/26 01:33:23;;;;;;;4.70;2.08;;;;;;;1.20;89.24;98750.69;5102981;27;20054;-84
2022/03/26 01:35:48;;;;;;;5.63;2.50;;;;;;;1.16;89.63;98738.78;5105070;28;20066;-83
2022/03/26 01:38:14;;;;;;;2.75;1.88;;;;;;;1.15;89.70;98742.56;5124056;27;20031;-85
2022/03/26 01:40:40;;;;;;;2.20;1.80;;;;;;;1.12;89.54;98725.00;5098270;28;20036;-84
2022/03/26 01:43:06;;;;;;;4.38;2.30;;;;;;;1.10;89.40;98724.47;5125548;27;20454;-83
2022/03/26 01:45:31;;;;;;;4.13;1.83;;;;;;;1.09;89.94;98711.22;5117203;27;20047;-84
2022/03/26 01:47:58;;;;;;;3.13;2.20;;;;;;;1.11;89.79;98709.06;5104386;28;20043;-85
2022/03/26 01:50:25;;;;;;;4.93;1.55;;;;;;;1.06;90.11;98711.78;5113624;27;20493;-85
2022/03/26 01:52:50;;;;;;;5.18;1.85;;;;;;;1.00;89.36;98699.31;5114513;27;20526;-85
2022/03/26 01:55:17;;;;;;;3.03;1.80;;;;;;;0.93;89.92;98698.75;5109844;28;20027;-84
2022/03/26 01:57:44;;;;;;;3.13;1.73;;;;;;;0.89;89.58;98698.50;5111411;28;20045;-85
2022/03/26 02:00:11;;;;;;;2.65;1.70;;;;;;;0.86;89.90;98699.81;5096685;28;20394;-86
2022/03/26 02:02:46;;;;;;;3.08;1.58;;;;;;;0.84;89.46;98684.94;5107486;27;20131;-85
2022/03/26 02:05:16;;;;;;;3.20;1.58;;;;;;;0.82;89.64;98682.53;5098688;27;20043;-85
2022/03/26 02:07:43;;;;;;;4.55;1.50;;;;;;;0.80;90.28;98676.56;5105731;28;20417;-84
2022/03/26 02:10:10;;;;;;;2.30;1.30;;;;;;;0.77;89.98;98670.91;5108048;28;20035;-84
2022/03/26 02:12:36;;;;;;;3.70;1.40;;;;;;;0.74;89.82;98672.25;5116527;27;20043;-82
2022/03/26 02:15:03;;;;;;;2.50;1.65;;;;;;;0.68;89.77;98662.50;5122029;28;20046;-84
2022/03/26 02:17:29;;;;;;;4.80;1.45;;;;;;;0.63;89.68;98649.00;5116995;28;20039;-85
2022/03/26 02:19:56;;;;;;;3.67;1.50;;;;;;;0.63;89.83;98651.69;5086612;28;20039;-85
2022/03/26 02:22:25;;;;;;;2.85;1.30;;;;;;;0.59;89.88;98646.03;5102282;28;20062;-84
2022/03/26 02:24:51;;;;;;;2.22;1.23;;;;;;;0.55;89.86;98644.13;5112005;28;20130;-85
2022/03/26 02:27:17;;;;;;;4.63;1.52;;;;;;;0.50;90.11;98650.28;5090834;28;20520;-85
2022/03/26 02:29:42;;;;;;;4.43;1.30;;;;;;;0.46;89.72;98643.81;5115988;28;20039;-84
2022/03/26 02:32:08;;;;;;;1.30;0.95;;;;;;;0.41;89.63;98645.69;5120369;28;20036;-84
2022/03/26 02:34:34;;;;;;;1.65;1.20;;;;;;;0.40;89.75;98636.78;5075443;28;20039;-83
2022/03/26 02:37:00;;;;;;;3.20;1.40;;;;;;;0.42;89.97;98633.81;5097709;28;20127;-83
2022/03/26 02:39:26;;;;;;;1.95;0.93;;;;;;;0.39;89.60;98634.34;5124720;28;20043;-83
2022/03/26 02:41:52;;;;;;;2.38;1.30;;;;;;;0.38;89.98;98632.72;5096207;28;20042;-84
2022/03/26 02:44:18;;;;;;;1.52;1.02;;;;;;;0.38;89.40;98635.44;5104997;28;20036;-83
2022/03/26 02:46:45;;;;;;;1.60;0.98;;;;;;;0.40;89.68;98636.78;5117664;28;22796;-83
2022/03/26 02:49:15;;;;;;;3.55;1.13;;;;;;;0.41;89.97;98633.00;5080538;28;20066;-84
2022/03/26 02:51:41;;;;;;;2.88;0.90;;;;;;;0.40;89.58;98628.69;5082765;28;20132;-85
2022/03/26 02:54:18;;;;;;;1.83;1.00;;;;;;;0.40;89.05;98622.47;5099667;27;20035;-84
2022/03/26 02:56:51;;;;;;;1.20;0.77;;;;;;;0.39;89.98;98623.56;5081453;28;20036;-83
2022/03/26 02:59:17;;;;;;;2.25;0.85;;;;;;;0.42;89.42;98618.44;5103497;27;20505;-83
2022/03/26 03:01:43;;;;;;;1.70;0.70;;;;;;;0.45;89.12;98614.41;5127526;27;20047;-84
2022/03/26 03:04:09;;;;;;;1.65;0.85;;;;;;;0.46;88.92;98599.81;5113385;28;20035;-84
2022/03/26 03:06:34;;;;;;;1.58;0.73;;;;;;;0.46;89.25;98595.25;5130705;27;20035;-85
2022/03/26 03:09:01;;;;;;;1.15;0.60;;;;;;;0.46;88.95;98594.44;5118239;27;20504;-85
2022/03/26 03:11:27;;;;;;;1.65;0.70;;;;;;;0.47;88.44;98593.34;5129848;27;20093;-83
2022/03/26 03:13:52;;;;;;;1.63;0.75;;;;;;;0.50;88.45;98584.72;5123832;27;20038;-83
2022/03/26 03:16:18;;;;;;;4.47;0.75;;;;;;;0.55;88.67;98588.25;5120607;27;20046;-84
2022/03/26 03:18:44;;;;;;;0.68;0.60;;;;;;;0.57;88.01;98586.09;5115401;27;20040;-84
2022/03/26 03:21:09;;;;;;;2.40;0.80;;;;;;;0.58;87.62;98585.03;5131628;27;20031;-84
2022/03/26 03:23:35;;;;;;;2.35;0.60;;;;;;;0.60;88.00;98573.97;5103092;27;20157;-83
2022/03/26 03:26:01;;;;;;;1.20;0.65;;;;;;;0.58;87.97;98570.72;5103858;28;20046;-84
2022/03/26 03:28:26;;;;;;;1.65;0.68;;;;;;;0.59;87.65;98566.94;5110279;27;20447;-82
2022/03/26 03:30:52;;;;;;;2.78;0.40;;;;;;;0.57;87.68;98563.72;5131584;27;20406;-85
2022/03/26 03:33:17;;;;;;;0.47;0.43;;;;;;;0.57;87.66;98566.41;5095709;27;20042;-85
2022/03/26 03:35:43;;;;;;;1.70;0.43;;;;;;;0.57;87.16;98569.09;5109095;28;20536;-85
2022/03/26 03:38:08;;;;;;;1.60;0.50;;;;;;;0.58;86.99;98565.31;5090507;27;20428;-85
2022/03/26 03:40:34;;;;;;;1.58;0.55;;;;;;;0.59;87.33;98562.34;5100699;28;20039;-85
2022/03/26 03:43:00;;;;;;;0.90;0.40;;;;;;;0.59;86.86;98561.56;5115455;27;20044;-83
2022/03/26 03:45:25;;;;;;;0.85;0.40;;;;;;;0.59;87.39;98561.56;5125006;27;20040;-84
2022/03/26 03:47:51;;;;;;;2.30;0.80;;;;;;;0.60;87.34;98560.47;5123119;27;20486;-85
2022/03/26 03:50:17;;;;;;;1.58;0.70;;;;;;;0.59;87.29;98564.25;5121650;27;20040;-84
2022/03/26 03:52:42;;;;;;;0.82;0.60;;;;;;;0.58;87.58;98566.13;5092268;28;20040;-84
2022/03/26 03:55:08;;;;;;;1.45;0.60;;;;;;;0.58;87.33;98566.13;5131074;27;20126;-85
2022/03/26 03:57:34;;;;;;;2.60;0.68;;;;;;;0.58;87.53;98557.22;5121348;27;20047;-82
2022/03/26 04:00:00;;;;;;;1.00;0.40;;;;;;;0.62;87.64;98558.31;5105584;28;20740;-84
2022/03/26 04:02:26;;;;;;;2.15;0.47;;;;;;;0.61;87.43;98559.38;5111403;28;20043;-82
2022/03/26 04:04:52;;;;;;;2.55;0.57;;;;;;;0.60;86.87;98557.78;5112503;27;20035;-82
2022/03/26 04:07:18;;;;;;;1.25;0.60;;;;;;;0.60;86.59;98549.69;5115667;27;20077;-82
2022/03/26 04:09:43;;;;;;;1.45;0.52;;;;;;;0.60;85.79;98550.47;5121845;27;20498;-84
2022/03/26 04:12:09;;;;;;;3.17;0.70;;;;;;;0.63;85.72;98538.34;5123907;27;20031;-84
2022/03/26 04:14:35;;;;;;;2.38;0.73;;;;;;;0.64;85.90;98539.16;5111639;27;20476;-84
2022/03/26 04:17:02;;;;;;;1.20;0.60;;;;;;;0.67;85.13;98544.81;5097781;27;20036;-84
2022/03/26 04:19:27;;;;;;;1.30;0.60;;;;;;;0.67;84.75;98541.31;5117645;27;20183;-84
2022/03/26 04:21:54;;;;;;;0.82;0.60;;;;;;;0.69;84.31;98534.56;5121999;27;20123;-83
2022/03/26 04:24:20;;;;;;;1.95;0.50;;;;;;;0.70;84.16;98540.78;5119698;27;20052;-83
2022/03/26 04:26:46;;;;;;;2.75;0.70;;;;;;;0.73;84.18;98542.94;5127175;27;20042;-83
2022/03/26 04:29:11;;;;;;;0.57;0.50;;;;;;;0.73;84.02;98532.97;5117003;27;20135;-82
2022/03/26 04:31:37;;;;;;;2.35;0.73;;;;;;;0.73;83.77;98530.25;5107694;28;20036;-83
2022/03/26 04:34:03;;;;;;;0.55;0.40;;;;;;;0.74;83.03;98537.28;5117183;27;20043;-83
2022/03/26 04:36:29;;;;;;;1.77;0.63;;;;;;;0.77;82.33;98523.25;5122850;27;20050;-84
2022/03/26 04:38:58;;;;;;;1.55;0.73;;;;;;;0.76;82.66;98518.94;5116226;27;20038;-85
2022/03/26 04:41:24;;;;;;;;;;;;;;;0.76;82.04;98513.53;5128671;27;20055;-84
2022/03/26 04:43:50;;;;;;;1.08;0.80;;;;;;;0.76;82.22;98508.13;5112810;28;19916;-84
2022/03/26 04:46:16;;;;;;;3.90;0.98;;;;;;;0.77;81.73;98509.75;5095695;28;20134;-85
2022/03/26 04:48:41;;;;;;;0.50;0.40;;;;;;;0.77;81.27;98514.34;5108547;27;20096;-83
2022/03/26 04:51:07;;;;;;;1.13;0.50;;;;;;;0.77;81.57;98514.34;5104825;27;20501;-83
2022/03/26 04:53:33;;;;;;;1.65;0.70;;;;;;;0.81;81.35;98508.13;5099885;27;20187;-83
2022/03/26 04:55:59;;;;;;;2.80;1.00;;;;;;;0.86;81.30;98510.81;5104624;28;20078;-83
2022/03/26 04:58:24;;;;;;;2.65;0.80;;;;;;;0.86;80.89;98499.19;5113240;27;20092;-84
2022/03/26 05:00:50;;;;;;;2.35;1.10;;;;;;;0.86;80.56;98505.41;5112557;27;20039;-84
2022/03/26 05:03:15;;;;;;;2.22;1.10;;;;;;;0.84;80.49;98498.66;5079507;28;20118;-84
2022/03/26 05:05:41;;;;;;;2.30;1.30;;;;;;;0.90;80.81;98500.31;5107080;28;20035;-85
2022/03/26 05:08:07;;;;;;;4.30;1.27;;;;;;;0.89;80.38;98488.69;5123774;27;20039;-84
2022/03/26 05:10:38;;;;;;;2.30;1.08;;;;;;;0.92;80.33;98489.22;5130899;27;20039;-83
2022/03/26 05:13:04;;;;;;;2.58;0.88;;;;;;;1.37;79.56;98491.03;5097032;28;20120;-83
2022/03/26 05:15:35;;;;;;;3.20;1.10;;;;;;;2.28;77.08;98484.47;5087486;27;20089;-84
2022/03/26 05:18:01;;;;;;;2.70;0.88;;;;;;;2.96;75.47;98484.53;5113140;27;20121;-83
2022/03/26 05:20:26;;;;;;;1.75;0.70;;;;;;;3.62;73.38;98471.09;5093134;28;20044;-84
2022/03/26 05:22:52;;;;;;;3.80;1.00;;;;;;;3.65;71.05;98474.38;5110412;27;20035;-84
2022/03/26 05:25:18;;;;;;;1.63;0.63;;;;;;;3.33;70.49;98473.06;5101445;28;20128;-84
2022/03/26 05:27:53;;;;;;;4.47;1.40;;;;;;;2.91;71.27;98476.44;5097314;28;20035;-84
2022/03/26 05:30:24;;;;;;;3.67;1.20;;;;;;;2.64;72.07;98475.03;5084892;28;20415;-84
2022/03/26 05:32:50;;;;;;;2.35;1.02;;;;;;;2.33;72.03;98482.53;5111871;27;20035;-84
2022/03/26 05:35:16;;;;;;;3.72;1.42;;;;;;;2.02;72.41;98481.91;5085635;28;20040;-85
2022/03/26 05:37:43;;;;;;;1.75;0.70;;;;;;;1.80;73.87;98478.75;5102908;27;20033;-86
2022/03/26 05:40:16;;;;;;;2.30;0.90;;;;;;;1.71;73.97;98464.19;5080515;28;20044;-85
2022/03/26 05:42:42;;;;;;;2.83;1.00;;;;;;;1.65;74.66;98484.22;5086063;28;20070;-85
2022/03/26 05:45:09;;;;;;;4.05;1.23;;;;;;;1.71;75.08;98477.69;5076095;27;20084;-85
2022/03/26 05:47:36;;;;;;;3.78;1.48;;;;;;;2.00;74.55;98477.84;5080835;28;20038;-84
2022/03/26 05:50:03;;;;;;;1.45;0.65;;;;;;;2.11;74.52;98485.66;5087371;28;20110;-85
2022/03/26 05:52:29;;;;;;;3.03;0.80;;;;;;;2.08;74.21;98483.50;5089703;28;20050;-87
2022/03/26 05:54:54;;;;;;;2.13;0.75;;;;;;;1.99;74.13;98481.66;5114713;27;20031;-83
2022/03/26 05:57:20;;;;;;;1.90;0.70;;;;;;;1.97;74.66;98470.31;5099042;28;20036;-84
2022/03/26 05:59:45;;;;;;;2.65;0.73;;;;;;;1.89;75.10;98492.50;5102990;27;20414;-83
2022/03/26 06:02:13;;;;;;;2.42;0.70;;;;;;;1.72;75.39;98482.81;5107046;27;20039;-85
2022/03/26 06:04:40;;;;;;;2.17;0.70;;;;;;;1.57;76.05;98482.91;5078687;28;20042;-86
2022/03/26 06:07:07;;;;;;;3.60;0.80;;;;;;;1.46;77.23;98497.53;5109434;28;20865;-87
2022/03/26 06:09:33;;;;;;;4.45;1.00;;;;;;;1.32;78.14;98485.66;5101191;28;20631;-85
2022/03/26 06:11:59;;;;;;;1.52;0.60;;;;;;;1.23;79.71;98488.13;5078829;28;20074;-85
2022/03/26 06:14:25;;;;;;;2.92;0.60;;;;;;;1.12;80.92;98487.31;5105194;28;20513;-86
2022/03/26 06:16:52;;;;;;;3.70;0.77;;;;;;;1.04;81.71;98484.34;5102920;28;20046;-87
2022/03/26 06:19:18;;;;;;;5.47;0.70;;;;;;;0.89;82.71;98491.41;5095157;28;20500;-87
2022/03/26 06:21:44;;;;;;;1.35;0.50;;;;;;;0.78;83.16;98495.16;5115611;28;20046;-82
2022/03/26 06:24:10;;;;;;;3.75;0.70;;;;;;;0.71;84.42;98483.03;5097166;28;20047;-86
2022/03/26 06:26:37;;;;;;;1.60;0.60;;;;;;;0.67;84.98;98479.22;5130885;27;20078;-79
2022/03/26 06:29:03;;;;;;;3.53;0.77;;;;;;;0.67;84.97;98480.03;5107016;27;20035;-80
2022/03/26 06:31:29;;;;;;;3.40;0.90;;;;;;;0.63;85.51;98468.16;5086781;28;20047;-79
2022/03/26 06:33:55;;;;;;;2.05;0.70;;;;;;;0.65;85.58;98466.00;5098356;28;20048;-81
2022/03/26 06:36:21;;;;;;;1.77;0.70;;;;;;;0.73;85.63;98470.06;5092108;28;20050;-80
2022/03/26 06:38:48;;;;;;;3.95;0.80;;;;;;;0.69;85.66;98461.69;5120528;27;20047;-80
2022/03/26 06:41:15;;;;;;;1.63;0.70;;;;;;;0.69;84.96;98460.88;5131458;27;20489;-82
2022/03/26 06:43:42;;;;;;;2.72;1.20;;;;;;;0.72;85.60;98454.97;5074286;28;20039;-83
2022/03/26 06:46:08;;;;;;;3.97;1.00;;;;;;;0.69;85.62;98448.19;5112810;27;20027;-81
2022/03/26 06:48:34;;;;;;;1.98;1.15;;;;;;;0.69;85.85;98447.38;5086403;28;20068;-82
2022/03/26 06:51:02;;;;;;;2.58;1.10;;;;;;;0.69;86.13;98447.38;5078314;27;20062;-81
2022/03/26 06:53:33;;;;;;;2.47;1.05;;;;;;;0.69;85.81;98448.19;5107158;27;20058;-81
2022/03/26 06:55:58;;;;;;;3.90;1.50;;;;;;;0.75;86.11;98457.13;5084748;28;20071;-82
2022/03/26 06:58:24;;;;;;;2.17;0.98;;;;;;;0.79;86.18;98439.28;5099824;28;20120;-81
2022/03/26 07:00:50;;;;;;;3.65;1.30;;;;;;;0.74;85.92;98456.31;5098608;28;20044;-81
2022/03/26 07:03:16;;;;;;;2.65;1.40;;;;;;;0.71;86.77;98453.34;5104759;27;20469;-81
2022/03/26 07:05:42;;;;;;;3.15;1.63;;;;;;;0.70;86.98;98452.53;5090214;28;20040;-80
2022/03/26 07:08:09;;;;;;;2.70;1.02;;;;;;;0.70;87.11;98466.03;5099294;27;20680;-81
2022/03/26 07:10:35;;;;;;;2.95;0.70;;;;;;;0.71;87.29;98472.25;5105195;27;20176;-83
2022/03/26 07:13:01;;;;;;;2.17;0.95;;;;;;;0.74;87.57;98460.91;5114034;27;20104;-82
2022/03/26 07:15:28;;;;;;;1.23;0.50;;;;;;;0.77;88.15;98461.16;5092589;28;20449;-82
2022/03/26 07:17:54;;;;;;;1.80;0.85;;;;;;;0.76;88.15;98459.53;5109825;28;20039;-83
2022/03/26 07:20:20;;;;;;;1.75;0.70;;;;;;;0.83;88.18;98464.66;5103710;27;20176;-79
2022/03/26 07:22:45;;;;;;;2.20;0.60;;;;;;;0.87;88.00;98463.88;5091696;28;20171;-82
2022/03/26 07:25:11;;;;;;;2.30;0.73;;;;;;;0.86;87.94;98464.09;5071929;28;20036;-83
2022/03/26 07:27:37;;;;;;;2.83;0.75;;;;;;;0.86;87.60;98459.50;5102589;27;20036;-84
2022/03/26 07:30:04;;;;;;;3.22;0.88;;;;;;;0.92;87.76;98460.34;5071832;28;20035;-83
2022/03/26 07:32:30;;;;;;;2.78;0.70;;;;;;;0.93;88.41;98451.16;5092311;28;20032;-83
2022/03/26 07:34:56;;;;;;;1.70;0.70;;;;;;;0.94;88.47;98455.47;5106453;27;20092;-81
2022/03/26 07:37:21;;;;;;;2.50;0.90;;;;;;;0.92;88.31;98463.03;5100037;27;20090;-81
2022/03/26 07:39:47;;;;;;;1.60;0.85;;;;;;;0.86;88.10;98454.13;5083083;28;20036;-80
2022/03/26 07:42:14;;;;;;;2.75;0.88;;;;;;;0.81;88.75;98459.53;5105763;28;20050;-80
2022/03/26 07:44:39;;;;;;;2.17;0.90;;;;;;;0.76;88.44;98464.94;5086657;28;20036;-78
2022/03/26 07:47:05;;;;;;;1.25;0.60;;;;;;;0.76;89.39;98464.94;5129827;27;20570;-81
2022/03/26 07:49:31;;;;;;;3.33;0.90;;;;;;;0.76;89.51;98464.94;5118908;27;20444;-80
2022/03/26 07:51:57;;;;;;;2.92;0.90;;;;;;;0.79;89.45;98466.28;5094865;28;20052;-81
2022/03/26 07:54:23;;;;;;;2.35;0.80;;;;;;;0.79;90.11;98468.97;5102329;28;20039;-81
2022/03/26 07:56:49;;;;;;;1.77;0.68;;;;;;;0.76;90.73;98470.34;5113721;27;20089;-80
2022/03/26 07:59:15;;;;;;;3.08;1.00;;;;;;;0.77;90.28;98463.84;5100566;27;20027;-80
2022/03/26 08:01:41;;;;;;;2.92;0.80;;;;;;;0.78;91.01;98468.16;5118339;27;20447;-81
2022/03/26 08:04:06;;;;;;;1.00;0.68;;;;;;;0.75;90.53;98466.03;5098352;28;20040;-80
2022/03/26 08:06:32;;;;;;;2.70;0.60;;;;;;;0.72;90.88;98471.16;5077595;28;20088;-80
2022/03/26 08:08:58;;;;;;;4.15;0.40;;;;;;;0.70;90.96;98474.13;5124408;27;20142;-80
2022/03/26 08:11:23;;;;;;;0.88;0.50;;;;;;;0.71;91.64;98469.53;5128552;27;20482;-80
2022/03/26 08:13:49;;;;;;;2.22;0.63;;;;;;;0.69;91.35;98468.97;5107635;27;20047;-81
2022/03/26 08:16:15;;;;;;;1.30;0.70;;;;;;;0.67;91.80;98471.94;5120352;27;20039;-80
2022/03/26 08:18:40;;;;;;;1.58;0.60;;;;;;;0.68;91.31;98478.97;5083953;28;20505;-81
2022/03/26 08:21:07;;;;;;;2.25;0.70;;;;;;;0.68;91.75;98478.97;5108727;27;20035;-81
2022/03/26 08:23:33;;;;;;;3.15;1.00;;;;;;;0.70;91.63;98479.53;5113494;27;20042;-79
2022/03/26 08:28:43;;;;;;;1.00;0.80;;;;;;;0.73;91.03;98484.38;5086714;28;20046;-80
2022/03/26 08:31:10;;;;;;;0.90;0.52;;;;;;;0.79;90.87;98493.28;5094594;27;20042;-81
2022/03/26 08:33:37;;;;;;;0.77;0.73;;;;;;;0.81;90.71;98493.81;5108216;27;20111;-82
2022/03/26 08:36:03;;;;;;;1.67;0.45;;;;;;;0.76;91.09;98500.03;5089018;27;20607;-81
2022/03/26 08:38:28;;;;;;;1.50;0.40;;;;;;;0.75;91.20;98497.59;5104128;27;20423;-80
2022/03/26 08:40:54;;;;;;;1.70;0.52;;;;;;;0.74;90.67;98493.28;5100032;27;20038;-80
2022/03/26 08:43:20;;;;;;;0.95;0.73;;;;;;;0.75;91.44;98495.72;5123863;27;20031;-82
2022/03/26 08:45:45;;;;;;;0.93;0.57;;;;;;;0.72;90.49;98517.84;5091654;27;20039;-81
2022/03/26 08:48:11;;;;;;;2.00;0.50;;;;;;;0.69;90.68;98501.34;5097799;28;20074;-82
2022/03/26 08:50:37;;;;;;;1.63;0.50;;;;;;;0.69;89.41;98499.47;5099502;28;20040;-81
2022/03/26 08:53:03;;;;;;;1.58;0.63;;;;;;;0.67;89.57;98508.91;5094234;27;20039;-81
2022/03/26 08:55:28;;;;;;;0.43;0.40;;;;;;;0.64;88.76;98515.66;5101382;27;20133;-81
2022/03/26 08:57:54;;;;;;;0.80;0.50;;;;;;;0.68;88.46;98522.13;5129685;27;20062;-81
2022/03/26 09:00:20;;;;;;;1.98;0.75;;;;;;;0.77;88.84;98507.03;5086892;28;20032;-79
2022/03/26 09:02:46;;;;;;;0.68;0.65;;;;;;;0.80;88.93;98516.50;5101413;27;20512;-79
2022/03/26 09:05:14;;;;;;;3.00;0.88;;;;;;;0.81;89.19;98521.63;5099910;27;20042;-79
2022/03/26 09:07:40;;;;;;;0.63;0.50;;;;;;;0.80;88.97;98513.78;5117597;27;20417;-79
2022/03/26 09:10:06;;;;;;;0.95;0.60;;;;;;;0.78;88.80;98524.88;5090467;28;20040;-80
2022/03/26 09:12:33;;;;;;;1.05;0.50;;;;;;;0.77;88.86;98536.75;5098377;27;20027;-81
2022/03/26 09:14:59;;;;;;;0.98;0.63;;;;;;;0.73;88.49;98546.47;5110545;27;20031;-78
2022/03/26 09:17:24;;;;;;;1.02;0.70;;;;;;;0.66;88.39;98548.59;5109287;27;20552;-80
2022/03/26 09:19:50;;;;;;;2.55;0.52;;;;;;;0.62;88.17;98552.91;5103272;27;20043;-79
2022/03/26 09:22:16;;;;;;;1.17;1.08;;;;;;;0.64;88.55;98560.75;5120498;27;20035;-81
2022/03/26 09:24:42;;;;;;;2.58;0.70;;;;;;;0.65;88.14;98554.25;5103790;28;20127;-82
2022/03/26 09:27:08;;;;;;;0.93;0.77;;;;;;;0.67;88.24;98568.28;5103641;27;20489;-81
2022/03/26 09:29:35;;;;;;;0.50;0.50;;;;;;;0.70;87.55;98565.09;5114442;27;20715;-78
2022/03/26 09:32:00;;;;;;;0.65;0.65;;;;;;;0.77;87.04;98571.84;5098774;28;20044;-80
2022/03/26 09:34:26;;;;;;;0.80;0.55;;;;;;;0.83;86.58;98570.75;5111364;27;20040;-80
2022/03/26 09:36:53;;;;;;;2.10;0.90;;;;;;;0.85;85.93;98592.88;5080037;27;20131;-80
2022/03/26 09:39:19;;;;;;;0.88;0.68;;;;;;;0.93;84.13;98605.06;5099237;28;20039;-79
2022/03/26 09:41:46;;;;;;;0.38;0.38;;;;;;;1.00;82.73;98599.41;5111615;27;20495;-80
2022/03/26 09:44:12;;;;;;;0.60;0.60;;;;;;;1.08;81.72;98596.19;5080098;28;20031;-81
2022/03/26 09:46:38;;;;;;;0.60;0.60;;;;;;;1.20;80.98;98607.50;5091609;28;20116;-80
2022/03/26 09:49:04;;;;;;;1.05;0.60;;;;;;;1.30;80.35;98614.81;5104978;27;20089;-82
2022/03/26 09:51:30;;;;;;;0.60;0.60;;;;;;;1.35;79.90;98615.63;5101940;27;20046;-78
2022/03/26 09:53:56;;;;;;;0.63;0.63;;;;;;;1.38;79.65;98633.19;5080064;28;20140;-81
2022/03/26 09:56:23;;;;;;;1.10;0.80;;;;;;;1.33;80.12;98641.28;5065016;28;20059;-83
2022/03/26 09:58:53;;;;;;;0.85;0.77;;;;;;;1.13;80.65;98647.50;5087399;28;20043;-76
2022/03/26 10:01:22;;;;;;;0.98;0.80;;;;;;;0.95;81.72;98656.91;5085241;28;20036;-79
2022/03/26 10:04:11;;;;;;;1.35;0.88;;;;;;;0.87;83.43;98660.97;5090573;28;20036;-78
2022/03/26 10:06:37;;;;;;;4.00;0.85;;;;;;;0.82;83.78;98676.31;5087051;28;20043;-83
2022/03/26 10:09:03;;;;;;;1.17;1.08;;;;;;;0.75;84.72;98673.88;5083356;28;20490;-80
2022/03/26 10:11:32;;;;;;;1.25;1.10;;;;;;;0.61;84.68;98672.75;5097955;28;20068;-83
2022/03/26 10:13:59;;;;;;;0.80;0.80;;;;;;;0.49;84.26;98681.06;5094760;28;20638;-80
2022/03/26 10:16:24;;;;;;;0.70;0.60;;;;;;;0.32;82.13;98693.09;5104545;27;20036;-81
2022/03/26 10:18:53;;;;;;;1.83;0.73;;;;;;;0.27;81.71;98712.78;5094147;28;20031;-80
2022/03/26 10:21:21;;;;;;;1.65;0.70;;;;;;;0.20;81.15;98714.91;5096316;28;20048;-77
2022/03/26 10:23:49;;;;;;;0.50;0.50;;;;;;;0.11;79.77;98721.84;5082327;28;20044;-77
2022/03/26 10:26:22;;;;;;;0.90;0.68;;;;;;;0.03;79.23;98731.25;5080694;28;20043;-77
2022/03/26 10:28:55;;;;;;;1.05;0.80;;;;;;;-0.04;79.09;98731.47;5094709;28;20027;-79
2022/03/26 10:34:13;;;;;;;0.57;0.57;;;;;;;-0.03;78.29;98761.91;5082561;28;20040;-77
2022/03/26 10:36:43;;;;;;;0.90;0.70;;;;;;;0.02;76.33;98767.38;5076709;28;20067;-77
2022/03/26 10:39:17;;;;;;;0.50;0.50;;;;;;;0.03;74.60;98752.81;5101398;28;20050;-76
2022/03/26 10:41:43;;;;;;;2.80;1.08;;;;;;;0.13;75.56;98750.19;5105547;28;20031;-76
2022/03/26 10:44:14;;;;;;;0.75;0.70;;;;;;;0.26;74.85;98749.72;5094969;28;20047;-77
2022/03/26 10:46:41;;;;;;;0.70;0.60;;;;;;;0.35;74.33;98760.03;5096914;28;20123;-77
2022/03/26 10:49:07;;;;;;;1.85;0.80;;;;;;;0.38;72.95;98760.34;5087907;28;20055;-77
2022/03/26 10:51:38;;;;;;;2.60;0.90;;;;;;;0.40;73.03;98752.78;5086031;28;20046;-77
2022/03/26 10:54:13;;;;;;;1.10;1.00;;;;;;;0.42;71.87;98776.81;5107983;28;20043;-77
2022/03/26 10:56:44;;;;;;;2.15;0.70;;;;;;;0.52;70.66;98768.75;5083480;28;20036;-77
2022/03/26 10:59:10;;;;;;;0.50;0.50;;;;;;;0.51;70.15;98778.75;5104800;28;20051;-77
2022/03/26 11:01:35;;;;;;;1.45;0.60;;;;;;;0.51;69.68;98780.63;5119714;28;20051;-77
2022/03/26 11:04:02;;;;;;;1.00;0.70;;;;;;;0.45;70.09;98797.88;5111522;28;20122;-77
2022/03/26 11:06:28;;;;;;;1.85;0.95;;;;;;;0.40;69.79;98795.16;5084141;28;20050;-76
2022/03/26 11:09:02;;;;;;;2.25;0.73;;;;;;;0.41;69.97;98802.16;5092388;28;20028;-75
2022/03/26 11:11:28;;;;;;;1.50;0.93;;;;;;;0.30;70.35;98823.66;5078965;28;20042;-77
2022/03/26 11:13:57;;;;;;;2.67;0.90;;;;;;;0.27;70.04;98820.69;5072530;28;20040;-77
2022/03/26 11:16:31;;;;;;;1.40;0.80;;;;;;;0.22;69.96;98831.44;5076085;28;20111;-78
2022/03/26 11:19:06;;;;;;;1.00;0.80;;;;;;;0.16;69.90;98865.63;5097547;28;20122;-80
2022/03/26 11:21:56;;;;;;;0.65;0.50;;;;;;;-0.05;69.59;98859.25;5105497;27;20090;-80
2022/03/26 11:24:22;;;;;;;0.90;0.77;;;;;;;-0.06;69.58;98876.50;5093417;28;20535;-81
2022/03/26 11:27:02;;;;;;;2.03;0.80;;;;;;;-0.05;69.57;98850.34;5091164;27;20063;-81
2022/03/26 11:29:34;;;;;;;0.60;0.60;;;;;;;-0.10;69.57;98883.47;5077925;28;20032;-77
2022/03/26 11:32:00;;;;;;;1.95;0.80;;;;;;;-0.14;69.18;98870.75;5091902;27;20046;-79
2022/03/26 11:34:31;;;;;;;0.63;0.63;;;;;;;-0.26;69.01;98900.56;5094247;27;20062;-78
2022/03/26 11:37:11;;;;;;;0.70;0.70;;;;;;;-0.38;69.15;98902.56;5079692;27;20043;-83
2022/03/26 11:39:45;;;;;;;1.55;0.85;;;;;;;-0.45;69.56;98907.34;5067843;28;20438;-82
2022/03/26 11:42:11;;;;;;;1.23;0.70;;;;;;;-0.51;69.46;98906.47;5104114;28;20497;-82
2022/03/26 11:44:43;;;;;;;0.60;0.57;;;;;;;-0.63;69.74;98938.09;5097362;28;20054;-78